sensor_id;sensor_type;location;lat;lon;timestamp;temperature;humidity
7030;DHT22;3556;53.500;10.176;2022-07-19T00:01:24;16.60;99.90
7030;DHT22;3556;53.500;10.176;2022-07-19T00:03:49;16.60;99.90
7030;DHT22;3556;53.500;10.176;2022-07-19T00:06:15;16.50;99.90
7030;DHT22;3556;53.500;10.176;2022-07-19T00:08:41;16.50;99.90
7030;DHT22;3556;53.500;10.176;2022-07-19T00:11:06;16.40;99.90
7030;DHT22;3556;53.500;10.176;2022-07-19T00:13:32;16.40;99.90
7030;DHT22;3556;53.500;10.176;2022-07-19T00:15:58;16.40;99.90
7030;DHT22;3556;53.500;10.176;2022-07-19T00:18:24;16.30;99.90
7030;DHT22;3556;53.500;10.176;2022-07-19T00:20:49;16.30;99.90
7030;DHT22;3556;53.500;10.176;2022-07-19T00:23:15;16.30;99.90
7030;DHT22;3556;53.500;10.176;2022-07-19T00:25:41;16.20;99.90
7030;DHT22;3556;53.500;10.176;2022-07-19T00:28:07;16.20;99.90
7030;DHT22;3556;53.500;10.176;2022-07-19T00:30:33;16.10;99.90
7030;DHT22;3556;53.500;10.176;2022-07-19T00:32:59;16.10;99.90
7030;DHT22;3556;53.500;10.176;2022-07-19T00:35:24;16.10;99.90
7030;DHT22;3556;53.500;10.176;2022-07-19T00:37:50;16.00;99.90
7030;DHT22;3556;53.500;10.176;2022-07-19T00:40:25;16.00;99.90
7030;DHT22;3556;53.500;10.176;2022-07-19T00:42:51;15.90;99.90
7030;DHT22;3556;53.500;10.176;2022-07-19T00:45:17;15.90;99.90
7030;DHT22;3556;53.500;10.176;2022-07-19T00:47:43;15.90;99.90
7030;DHT22;3556;53.500;10.176;2022-07-19T00:50:08;15.80;99.90
7030;DHT22;3556;53.500;10.176;2022-07-19T00:52:37;15.80;99.90
7030;DHT22;3556;53.500;10.176;2022-07-19T00:55:05;15.80;99.90
7030;DHT22;3556;53.500;10.176;2022-07-19T00:57:31;15.70;99.90
7030;DHT22;3556;53.500;10.176;2022-07-19T00:59:57;15.70;99.90
7030;DHT22;3556;53.500;10.176;2022-07-19T01:02:24;15.70;99.90
7030;DHT22;3556;53.500;10.176;2022-07-19T01:04:50;15.60;99.90
7030;DHT22;3556;53.500;10.176;2022-07-19T01:07:16;15.60;99.90
7030;DHT22;3556;53.500;10.176;2022-07-19T01:09:42;15.60;99.90
7030;DHT22;3556;53.500;10.176;2022-07-19T01:12:08;15.50;99.90
7030;DHT22;3556;53.500;10.176;2022-07-19T01:14:34;15.50;99.90
7030;DHT22;3556;53.500;10.176;2022-07-19T01:17:03;15.50;99.90
7030;DHT22;3556;53.500;10.176;2022-07-19T01:19:29;15.40;99.90
7030;DHT22;3556;53.500;10.176;2022-07-19T01:21:54;15.40;99.90
7030;DHT22;3556;53.500;10.176;2022-07-19T01:24:20;15.40;99.90
7030;DHT22;3556;53.500;10.176;2022-07-19T01:26:46;15.30;99.90
7030;DHT22;3556;53.500;10.176;2022-07-19T01:29:15;15.30;99.90
7030;DHT22;3556;53.500;10.176;2022-07-19T01:31:41;15.30;99.90
7030;DHT22;3556;53.500;10.176;2022-07-19T01:34:07;15.30;99.90
7030;DHT22;3556;53.500;10.176;2022-07-19T01:36:33;15.20;99.90
7030;DHT22;3556;53.500;10.176;2022-07-19T01:38:59;15.20;99.90
7030;DHT22;3556;53.500;10.176;2022-07-19T01:41:25;15.20;99.90
7030;DHT22;3556;53.500;10.176;2022-07-19T01:43:50;15.10;99.90
7030;DHT22;3556;53.500;10.176;2022-07-19T01:46:16;15.10;99.90
7030;DHT22;3556;53.500;10.176;2022-07-19T01:48:42;15.10;99.90
7030;DHT22;3556;53.500;10.176;2022-07-19T01:51:07;15.10;99.90
7030;DHT22;3556;53.500;10.176;2022-07-19T01:53:33;15.00;99.90
7030;DHT22;3556;53.500;10.176;2022-07-19T01:55:59;15.00;99.90
7030;DHT22;3556;53.500;10.176;2022-07-19T01:58:25;15.00;99.90
7030;DHT22;3556;53.500;10.176;2022-07-19T02:00:51;15.00;99.90
7030;DHT22;3556;53.500;10.176;2022-07-19T02:03:16;14.90;99.90
7030;DHT22;3556;53.500;10.176;2022-07-19T02:05:43;14.90;99.90
7030;DHT22;3556;53.500;10.176;2022-07-19T02:08:09;14.90;99.90
7030;DHT22;3556;53.500;10.176;2022-07-19T02:10:35;14.80;99.90
7030;DHT22;3556;53.500;10.176;2022-07-19T02:13:00;14.80;99.90
7030;DHT22;3556;53.500;10.176;2022-07-19T02:15:26;14.70;99.90
7030;DHT22;3556;53.500;10.176;2022-07-19T02:17:52;14.80;99.90
7030;DHT22;3556;53.500;10.176;2022-07-19T02:20:18;14.70;99.90
7030;DHT22;3556;53.500;10.176;2022-07-19T02:22:44;14.70;99.90
7030;DHT22;3556;53.500;10.176;2022-07-19T02:25:10;14.70;99.90
7030;DHT22;3556;53.500;10.176;2022-07-19T02:27:36;14.60;99.90
7030;DHT22;3556;53.500;10.176;2022-07-19T02:30:03;14.60;99.90
7030;DHT22;3556;53.500;10.176;2022-07-19T02:32:28;14.60;99.90
7030;DHT22;3556;53.500;10.176;2022-07-19T02:34:54;14.60;99.90
7030;DHT22;3556;53.500;10.176;2022-07-19T02:37:20;14.50;99.90
7030;DHT22;3556;53.500;10.176;2022-07-19T02:39:45;14.50;99.90
7030;DHT22;3556;53.500;10.176;2022-07-19T02:42:11;14.50;99.90
7030;DHT22;3556;53.500;10.176;2022-07-19T02:44:36;14.40;99.90
7030;DHT22;3556;53.500;10.176;2022-07-19T02:47:02;14.40;99.90
7030;DHT22;3556;53.500;10.176;2022-07-19T02:49:28;14.40;99.90
7030;DHT22;3556;53.500;10.176;2022-07-19T02:51:53;14.40;99.90
7030;DHT22;3556;53.500;10.176;2022-07-19T02:54:19;14.40;99.90
7030;DHT22;3556;53.500;10.176;2022-07-19T02:56:45;14.30;99.90
7030;DHT22;3556;53.500;10.176;2022-07-19T02:59:10;14.30;99.90
7030;DHT22;3556;53.500;10.176;2022-07-19T03:01:36;14.30;99.90
7030;DHT22;3556;53.500;10.176;2022-07-19T03:04:01;14.30;99.90
7030;DHT22;3556;53.500;10.176;2022-07-19T03:06:27;14.30;99.90
7030;DHT22;3556;53.500;10.176;2022-07-19T03:08:53;14.20;99.90
7030;DHT22;3556;53.500;10.176;2022-07-19T03:11:18;14.20;99.90
7030;DHT22;3556;53.500;10.176;2022-07-19T03:13:44;14.20;99.90
7030;DHT22;3556;53.500;10.176;2022-07-19T03:16:10;14.10;99.90
7030;DHT22;3556;53.500;10.176;2022-07-19T03:18:36;14.10;99.90
7030;DHT22;3556;53.500;10.176;2022-07-19T03:21:02;14.10;99.90
7030;DHT22;3556;53.500;10.176;2022-07-19T03:23:31;14.10;99.90
7030;DHT22;3556;53.500;10.176;2022-07-19T03:25:57;14.00;99.90
7030;DHT22;3556;53.500;10.176;2022-07-19T03:28:22;14.00;99.90
7030;DHT22;3556;53.500;10.176;2022-07-19T03:30:48;14.00;99.90
7030;DHT22;3556;53.500;10.176;2022-07-19T03:33:14;14.00;99.90
7030;DHT22;3556;53.500;10.176;2022-07-19T03:35:42;13.90;99.90
7030;DHT22;3556;53.500;10.176;2022-07-19T03:38:09;13.90;99.90
7030;DHT22;3556;53.500;10.176;2022-07-19T03:40:35;13.90;99.90
7030;DHT22;3556;53.500;10.176;2022-07-19T03:43:01;13.90;99.90
7030;DHT22;3556;53.500;10.176;2022-07-19T03:45:26;13.90;99.90
7030;DHT22;3556;53.500;10.176;2022-07-19T03:47:52;13.90;99.90
7030;DHT22;3556;53.500;10.176;2022-07-19T03:50:18;13.80;99.90
7030;DHT22;3556;53.500;10.176;2022-07-19T03:52:43;13.80;99.90
7030;DHT22;3556;53.500;10.176;2022-07-19T03:55:09;13.80;99.90
7030;DHT22;3556;53.500;10.176;2022-07-19T03:57:35;13.80;99.90
7030;DHT22;3556;53.500;10.176;2022-07-19T04:00:00;13.90;99.90
7030;DHT22;3556;53.500;10.176;2022-07-19T04:02:26;13.90;99.90
7030;DHT22;3556;53.500;10.176;2022-07-19T04:04:52;13.90;99.90
7030;DHT22;3556;53.500;10.176;2022-07-19T04:07:18;13.90;99.90
7030;DHT22;3556;53.500;10.176;2022-07-19T04:09:43;13.90;99.90
7030;DHT22;3556;53.500;10.176;2022-07-19T04:12:09;13.90;99.90
7030;DHT22;3556;53.500;10.176;2022-07-19T04:14:35;13.90;99.90
7030;DHT22;3556;53.500;10.176;2022-07-19T04:17:00;14.00;99.90
7030;DHT22;3556;53.500;10.176;2022-07-19T04:19:30;13.90;99.90
7030;DHT22;3556;53.500;10.176;2022-07-19T04:21:56;14.00;99.90
7030;DHT22;3556;53.500;10.176;2022-07-19T04:24:21;14.00;99.90
7030;DHT22;3556;53.500;10.176;2022-07-19T04:26:47;14.10;99.90
7030;DHT22;3556;53.500;10.176;2022-07-19T04:29:13;14.10;99.90
7030;DHT22;3556;53.500;10.176;2022-07-19T04:31:38;14.10;99.90
7030;DHT22;3556;53.500;10.176;2022-07-19T04:34:04;14.20;99.90
7030;DHT22;3556;53.500;10.176;2022-07-19T04:36:30;14.30;99.90
7030;DHT22;3556;53.500;10.176;2022-07-19T04:38:55;14.40;99.90
7030;DHT22;3556;53.500;10.176;2022-07-19T04:41:21;14.40;99.90
7030;DHT22;3556;53.500;10.176;2022-07-19T04:43:46;14.50;99.90
7030;DHT22;3556;53.500;10.176;2022-07-19T04:46:12;14.60;99.90
7030;DHT22;3556;53.500;10.176;2022-07-19T04:48:38;14.70;99.90
7030;DHT22;3556;53.500;10.176;2022-07-19T04:51:06;14.70;99.90
7030;DHT22;3556;53.500;10.176;2022-07-19T04:53:32;14.80;99.90
7030;DHT22;3556;53.500;10.176;2022-07-19T04:55:57;14.90;99.90
7030;DHT22;3556;53.500;10.176;2022-07-19T04:58:23;15.00;99.90
7030;DHT22;3556;53.500;10.176;2022-07-19T05:00:49;15.00;99.90
7030;DHT22;3556;53.500;10.176;2022-07-19T05:03:14;15.10;99.90
7030;DHT22;3556;53.500;10.176;2022-07-19T05:05:40;15.20;99.90
7030;DHT22;3556;53.500;10.176;2022-07-19T05:08:06;15.30;99.90
7030;DHT22;3556;53.500;10.176;2022-07-19T05:10:31;15.40;99.90
7030;DHT22;3556;53.500;10.176;2022-07-19T05:12:57;15.50;99.90
7030;DHT22;3556;53.500;10.176;2022-07-19T05:15:23;15.60;99.90
7030;DHT22;3556;53.500;10.176;2022-07-19T05:17:49;15.70;99.90
7030;DHT22;3556;53.500;10.176;2022-07-19T05:20:14;15.80;99.90
7030;DHT22;3556;53.500;10.176;2022-07-19T05:22:42;15.90;99.90
7030;DHT22;3556;53.500;10.176;2022-07-19T05:25:09;16.00;99.90
7030;DHT22;3556;53.500;10.176;2022-07-19T05:27:35;16.20;99.90
7030;DHT22;3556;53.500;10.176;2022-07-19T05:30:02;16.30;99.90
7030;DHT22;3556;53.500;10.176;2022-07-19T05:32:28;16.40;99.90
7030;DHT22;3556;53.500;10.176;2022-07-19T05:34:54;16.50;99.90
7030;DHT22;3556;53.500;10.176;2022-07-19T05:37:19;16.60;99.90
7030;DHT22;3556;53.500;10.176;2022-07-19T05:39:45;16.80;99.90
7030;DHT22;3556;53.500;10.176;2022-07-19T05:42:11;16.90;99.90
7030;DHT22;3556;53.500;10.176;2022-07-19T05:44:36;17.00;99.90
7030;DHT22;3556;53.500;10.176;2022-07-19T05:47:02;17.20;99.90
7030;DHT22;3556;53.500;10.176;2022-07-19T05:49:28;17.30;99.90
7030;DHT22;3556;53.500;10.176;2022-07-19T05:51:53;17.50;99.90
7030;DHT22;3556;53.500;10.176;2022-07-19T05:54:19;17.60;99.90
7030;DHT22;3556;53.500;10.176;2022-07-19T05:56:44;17.90;99.90
7030;DHT22;3556;53.500;10.176;2022-07-19T05:59:10;18.00;99.90
7030;DHT22;3556;53.500;10.176;2022-07-19T06:01:36;18.20;99.90
7030;DHT22;3556;53.500;10.176;2022-07-19T06:04:02;18.30;99.90
7030;DHT22;3556;53.500;10.176;2022-07-19T06:06:30;18.50;99.90
7030;DHT22;3556;53.500;10.176;2022-07-19T06:08:57;18.70;99.90
7030;DHT22;3556;53.500;10.176;2022-07-19T06:11:23;18.90;99.90
7030;DHT22;3556;53.500;10.176;2022-07-19T06:13:50;19.10;99.90
7030;DHT22;3556;53.500;10.176;2022-07-19T06:16:16;19.20;99.90
7030;DHT22;3556;53.500;10.176;2022-07-19T06:18:42;19.40;99.90
7030;DHT22;3556;53.500;10.176;2022-07-19T06:21:18;19.60;99.90
7030;DHT22;3556;53.500;10.176;2022-07-19T06:23:45;19.80;99.90
7030;DHT22;3556;53.500;10.176;2022-07-19T06:26:11;20.00;99.90
7030;DHT22;3556;53.500;10.176;2022-07-19T06:28:38;20.10;99.90
7030;DHT22;3556;53.500;10.176;2022-07-19T06:31:04;20.40;99.90
7030;DHT22;3556;53.500;10.176;2022-07-19T06:33:30;20.50;99.90
7030;DHT22;3556;53.500;10.176;2022-07-19T06:35:55;20.60;99.90
7030;DHT22;3556;53.500;10.176;2022-07-19T06:38:21;20.80;99.90
7030;DHT22;3556;53.500;10.176;2022-07-19T06:40:47;20.90;99.90
7030;DHT22;3556;53.500;10.176;2022-07-19T06:43:12;21.10;99.90
7030;DHT22;3556;53.500;10.176;2022-07-19T06:45:38;21.20;99.90
7030;DHT22;3556;53.500;10.176;2022-07-19T06:48:04;21.30;99.90
7030;DHT22;3556;53.500;10.176;2022-07-19T06:50:30;21.40;99.90
7030;DHT22;3556;53.500;10.176;2022-07-19T06:52:56;21.60;99.90
7030;DHT22;3556;53.500;10.176;2022-07-19T06:55:22;21.70;99.90
7030;DHT22;3556;53.500;10.176;2022-07-19T06:57:48;21.80;99.90
7030;DHT22;3556;53.500;10.176;2022-07-19T07:00:14;22.00;99.90
7030;DHT22;3556;53.500;10.176;2022-07-19T07:02:40;22.10;99.90
7030;DHT22;3556;53.500;10.176;2022-07-19T07:05:07;22.20;99.90
7030;DHT22;3556;53.500;10.176;2022-07-19T07:07:34;22.30;99.90
7030;DHT22;3556;53.500;10.176;2022-07-19T07:09:59;22.40;99.90
7030;DHT22;3556;53.500;10.176;2022-07-19T07:12:29;22.60;99.90
7030;DHT22;3556;53.500;10.176;2022-07-19T07:14:54;22.70;99.90
7030;DHT22;3556;53.500;10.176;2022-07-19T07:17:20;22.80;99.90
7030;DHT22;3556;53.500;10.176;2022-07-19T07:19:46;22.90;99.90
7030;DHT22;3556;53.500;10.176;2022-07-19T07:22:12;23.10;99.90
7030;DHT22;3556;53.500;10.176;2022-07-19T07:24:37;23.20;99.90
7030;DHT22;3556;53.500;10.176;2022-07-19T07:27:03;23.30;99.90
7030;DHT22;3556;53.500;10.176;2022-07-19T07:29:29;23.40;99.90
7030;DHT22;3556;53.500;10.176;2022-07-19T07:31:55;23.50;99.90
7030;DHT22;3556;53.500;10.176;2022-07-19T07:34:21;23.70;99.90
7030;DHT22;3556;53.500;10.176;2022-07-19T07:36:47;23.80;99.90
7030;DHT22;3556;53.500;10.176;2022-07-19T07:39:13;23.90;99.90
7030;DHT22;3556;53.500;10.176;2022-07-19T07:41:39;24.10;99.90
7030;DHT22;3556;53.500;10.176;2022-07-19T07:44:05;24.30;99.90
7030;DHT22;3556;53.500;10.176;2022-07-19T07:46:31;24.40;99.90
7030;DHT22;3556;53.500;10.176;2022-07-19T07:48:56;24.50;99.90
7030;DHT22;3556;53.500;10.176;2022-07-19T07:51:22;24.70;99.90
7030;DHT22;3556;53.500;10.176;2022-07-19T07:53:49;24.80;99.90
7030;DHT22;3556;53.500;10.176;2022-07-19T07:56:14;24.90;99.50
7030;DHT22;3556;53.500;10.176;2022-07-19T07:58:40;25.00;99.50
7030;DHT22;3556;53.500;10.176;2022-07-19T08:01:06;25.10;98.20
7030;DHT22;3556;53.500;10.176;2022-07-19T08:03:32;25.30;98.80
7030;DHT22;3556;53.500;10.176;2022-07-19T08:05:57;25.30;98.70
7030;DHT22;3556;53.500;10.176;2022-07-19T08:08:24;25.50;98.90
7030;DHT22;3556;53.500;10.176;2022-07-19T08:10:53;25.60;98.90
7030;DHT22;3556;53.500;10.176;2022-07-19T08:13:19;25.70;97.90
7030;DHT22;3556;53.500;10.176;2022-07-19T08:15:44;25.90;97.80
7030;DHT22;3556;53.500;10.176;2022-07-19T08:18:10;26.00;96.90
7030;DHT22;3556;53.500;10.176;2022-07-19T08:20:36;26.10;97.60
7030;DHT22;3556;53.500;10.176;2022-07-19T08:23:02;26.20;97.60
7030;DHT22;3556;53.500;10.176;2022-07-19T08:25:28;26.40;96.80
7030;DHT22;3556;53.500;10.176;2022-07-19T08:27:53;26.50;96.00
7030;DHT22;3556;53.500;10.176;2022-07-19T08:30:19;26.60;94.40
7030;DHT22;3556;53.500;10.176;2022-07-19T08:32:45;26.80;94.00
7030;DHT22;3556;53.500;10.176;2022-07-19T08:35:11;26.90;94.40
7030;DHT22;3556;53.500;10.176;2022-07-19T08:37:36;27.00;93.90
7030;DHT22;3556;53.500;10.176;2022-07-19T08:40:04;27.10;92.20
7030;DHT22;3556;53.500;10.176;2022-07-19T08:42:30;27.20;91.40
7030;DHT22;3556;53.500;10.176;2022-07-19T08:45:00;27.30;90.00
7030;DHT22;3556;53.500;10.176;2022-07-19T08:47:28;27.50;90.40
7030;DHT22;3556;53.500;10.176;2022-07-19T08:49:54;27.60;90.80
7030;DHT22;3556;53.500;10.176;2022-07-19T08:52:24;27.70;88.80
7030;DHT22;3556;53.500;10.176;2022-07-19T08:54:49;27.80;86.00
7030;DHT22;3556;53.500;10.176;2022-07-19T08:57:15;27.90;82.80
7030;DHT22;3556;53.500;10.176;2022-07-19T09:00:00;28.00;82.50
7030;DHT22;3556;53.500;10.176;2022-07-19T09:02:25;28.10;84.40
7030;DHT22;3556;53.500;10.176;2022-07-19T09:05:20;28.20;83.30
7030;DHT22;3556;53.500;10.176;2022-07-19T09:10:25;28.50;78.70
7030;DHT22;3556;53.500;10.176;2022-07-19T09:18:14;28.80;76.00
7030;DHT22;3556;53.500;10.176;2022-07-19T09:20:40;28.90;77.50
7030;DHT22;3556;53.500;10.176;2022-07-19T09:23:07;29.10;82.80
7030;DHT22;3556;53.500;10.176;2022-07-19T09:25:43;29.10;79.10
7030;DHT22;3556;53.500;10.176;2022-07-19T09:28:10;29.20;78.00
7030;DHT22;3556;53.500;10.176;2022-07-19T09:30:47;29.30;76.90
7030;DHT22;3556;53.500;10.176;2022-07-19T09:33:19;29.40;75.00
7030;DHT22;3556;53.500;10.176;2022-07-19T09:35:49;29.60;75.30
7030;DHT22;3556;53.500;10.176;2022-07-19T09:40:49;29.70;67.70
7030;DHT22;3556;53.500;10.176;2022-07-19T09:43:16;29.80;67.60
7030;DHT22;3556;53.500;10.176;2022-07-19T09:45:42;29.90;72.30
7030;DHT22;3556;53.500;10.176;2022-07-19T09:48:08;30.10;69.70
7030;DHT22;3556;53.500;10.176;2022-07-19T09:50:33;30.20;68.60
7030;DHT22;3556;53.500;10.176;2022-07-19T09:53:02;30.30;67.60
7030;DHT22;3556;53.500;10.176;2022-07-19T09:55:29;30.30;67.00
7030;DHT22;3556;53.500;10.176;2022-07-19T09:57:56;30.40;68.20
7030;DHT22;3556;53.500;10.176;2022-07-19T10:00:24;30.50;70.20
7030;DHT22;3556;53.500;10.176;2022-07-19T10:02:55;30.70;66.50
7030;DHT22;3556;53.500;10.176;2022-07-19T10:05:22;30.80;66.90
7030;DHT22;3556;53.500;10.176;2022-07-19T10:07:48;30.90;64.40
7030;DHT22;3556;53.500;10.176;2022-07-19T10:10:16;31.00;63.40
7030;DHT22;3556;53.500;10.176;2022-07-19T10:12:45;31.00;64.10
7030;DHT22;3556;53.500;10.176;2022-07-19T10:15:13;31.10;61.10
7030;DHT22;3556;53.500;10.176;2022-07-19T10:17:51;31.20;60.40
7030;DHT22;3556;53.500;10.176;2022-07-19T10:20:21;31.20;59.30
7030;DHT22;3556;53.500;10.176;2022-07-19T10:22:48;31.30;58.20
7030;DHT22;3556;53.500;10.176;2022-07-19T10:25:16;31.30;62.90
7030;DHT22;3556;53.500;10.176;2022-07-19T10:27:50;31.40;62.30
7030;DHT22;3556;53.500;10.176;2022-07-19T10:30:22;31.50;60.80
7030;DHT22;3556;53.500;10.176;2022-07-19T10:32:50;31.60;59.80
7030;DHT22;3556;53.500;10.176;2022-07-19T10:37:47;31.90;60.00
7030;DHT22;3556;53.500;10.176;2022-07-19T10:40:13;32.10;63.00
7030;DHT22;3556;53.500;10.176;2022-07-19T10:43:07;32.20;57.20
7030;DHT22;3556;53.500;10.176;2022-07-19T10:45:34;32.30;55.60
7030;DHT22;3556;53.500;10.176;2022-07-19T10:48:06;32.40;50.00
7030;DHT22;3556;53.500;10.176;2022-07-19T10:51:01;32.30;45.90
7030;DHT22;3556;53.500;10.176;2022-07-19T10:56:22;32.50;53.20
7030;DHT22;3556;53.500;10.176;2022-07-19T10:58:50;32.80;52.70
7030;DHT22;3556;53.500;10.176;2022-07-19T11:01:18;33.20;45.40
7030;DHT22;3556;53.500;10.176;2022-07-19T11:03:45;33.60;45.80
7030;DHT22;3556;53.500;10.176;2022-07-19T11:06:19;33.80;48.80
7030;DHT22;3556;53.500;10.176;2022-07-19T11:08:45;34.00;47.60
7030;DHT22;3556;53.500;10.176;2022-07-19T11:11:13;34.20;46.20
7030;DHT22;3556;53.500;10.176;2022-07-19T11:13:43;34.20;46.60
7030;DHT22;3556;53.500;10.176;2022-07-19T11:16:10;34.00;46.20
7030;DHT22;3556;53.500;10.176;2022-07-19T11:18:35;34.10;49.10
7030;DHT22;3556;53.500;10.176;2022-07-19T11:21:03;34.10;45.70
7030;DHT22;3556;53.500;10.176;2022-07-19T11:23:31;34.30;50.30
7030;DHT22;3556;53.500;10.176;2022-07-19T11:26:16;34.40;51.10
7030;DHT22;3556;53.500;10.176;2022-07-19T11:28:49;34.70;48.90
7030;DHT22;3556;53.500;10.176;2022-07-19T11:31:18;35.00;47.90
7030;DHT22;3556;53.500;10.176;2022-07-19T11:33:46;35.20;47.40
7030;DHT22;3556;53.500;10.176;2022-07-19T11:36:13;35.40;45.40
7030;DHT22;3556;53.500;10.176;2022-07-19T11:38:47;35.50;45.70
7030;DHT22;3556;53.500;10.176;2022-07-19T11:41:22;35.60;44.20
7030;DHT22;3556;53.500;10.176;2022-07-19T11:43:56;35.80;48.60
7030;DHT22;3556;53.500;10.176;2022-07-19T11:46:26;36.00;43.30
7030;DHT22;3556;53.500;10.176;2022-07-19T11:48:57;36.10;45.50
7030;DHT22;3556;53.500;10.176;2022-07-19T11:51:23;36.30;46.20
7030;DHT22;3556;53.500;10.176;2022-07-19T11:53:51;36.50;43.30
7030;DHT22;3556;53.500;10.176;2022-07-19T11:56:24;36.60;43.30
7030;DHT22;3556;53.500;10.176;2022-07-19T11:58:52;36.70;43.00
7030;DHT22;3556;53.500;10.176;2022-07-19T12:01:28;36.70;39.70
7030;DHT22;3556;53.500;10.176;2022-07-19T12:06:35;36.60;43.30
7030;DHT22;3556;53.500;10.176;2022-07-19T12:09:07;36.70;46.00
7030;DHT22;3556;53.500;10.176;2022-07-19T12:11:51;36.90;43.00
7030;DHT22;3556;53.500;10.176;2022-07-19T12:14:31;37.00;39.60
7030;DHT22;3556;53.500;10.176;2022-07-19T12:17:16;37.10;40.30
7030;DHT22;3556;53.500;10.176;2022-07-19T12:19:44;37.20;39.40
7030;DHT22;3556;53.500;10.176;2022-07-19T12:22:34;37.40;43.10
7030;DHT22;3556;53.500;10.176;2022-07-19T12:25:00;37.70;41.50
7030;DHT22;3556;53.500;10.176;2022-07-19T12:27:26;37.90;41.70
7030;DHT22;3556;53.500;10.176;2022-07-19T12:29:56;38.10;41.30
7030;DHT22;3556;53.500;10.176;2022-07-19T12:32:33;38.10;39.50
7030;DHT22;3556;53.500;10.176;2022-07-19T12:35:04;38.10;42.00
7030;DHT22;3556;53.500;10.176;2022-07-19T12:37:33;38.10;41.50
7030;DHT22;3556;53.500;10.176;2022-07-19T12:40:28;38.30;41.90
7030;DHT22;3556;53.500;10.176;2022-07-19T12:45:33;38.70;42.00
7030;DHT22;3556;53.500;10.176;2022-07-19T12:48:00;38.90;40.10
7030;DHT22;3556;53.500;10.176;2022-07-19T12:50:35;38.90;39.00
7030;DHT22;3556;53.500;10.176;2022-07-19T12:53:03;39.00;40.40
7030;DHT22;3556;53.500;10.176;2022-07-19T12:55:30;39.10;42.00
7030;DHT22;3556;53.500;10.176;2022-07-19T12:57:58;39.30;39.60
7030;DHT22;3556;53.500;10.176;2022-07-19T13:00:26;39.40;39.30
7030;DHT22;3556;53.500;10.176;2022-07-19T13:02:53;39.60;38.10
7030;DHT22;3556;53.500;10.176;2022-07-19T13:05:20;39.70;37.90
7030;DHT22;3556;53.500;10.176;2022-07-19T13:07:46;39.90;38.90
7030;DHT22;3556;53.500;10.176;2022-07-19T13:10:13;40.20;37.20
7030;DHT22;3556;53.500;10.176;2022-07-19T13:12:40;40.20;35.80
7030;DHT22;3556;53.500;10.176;2022-07-19T13:15:07;40.30;36.10
7030;DHT22;3556;53.500;10.176;2022-07-19T13:17:33;40.50;35.60
7030;DHT22;3556;53.500;10.176;2022-07-19T13:19:59;40.60;35.10
7030;DHT22;3556;53.500;10.176;2022-07-19T13:22:25;40.80;38.00
7030;DHT22;3556;53.500;10.176;2022-07-19T13:24:52;40.90;35.70
7030;DHT22;3556;53.500;10.176;2022-07-19T13:27:18;41.00;34.50
7030;DHT22;3556;53.500;10.176;2022-07-19T13:29:44;41.20;36.90
7030;DHT22;3556;53.500;10.176;2022-07-19T13:32:10;41.00;30.80
7030;DHT22;3556;53.500;10.176;2022-07-19T13:34:37;40.90;33.60
7030;DHT22;3556;53.500;10.176;2022-07-19T13:37:03;41.00;33.30
7030;DHT22;3556;53.500;10.176;2022-07-19T13:39:29;41.10;33.00
7030;DHT22;3556;53.500;10.176;2022-07-19T13:41:55;41.20;35.00
7030;DHT22;3556;53.500;10.176;2022-07-19T13:44:21;41.30;31.40
7030;DHT22;3556;53.500;10.176;2022-07-19T13:46:47;41.50;32.80
7030;DHT22;3556;53.500;10.176;2022-07-19T13:49:12;41.60;33.10
7030;DHT22;3556;53.500;10.176;2022-07-19T13:51:38;41.70;29.90
7030;DHT22;3556;53.500;10.176;2022-07-19T13:54:05;41.80;32.20
7030;DHT22;3556;53.500;10.176;2022-07-19T13:56:30;41.80;34.20
7030;DHT22;3556;53.500;10.176;2022-07-19T13:58:56;41.60;27.70
7030;DHT22;3556;53.500;10.176;2022-07-19T14:01:22;41.20;27.40
7030;DHT22;3556;53.500;10.176;2022-07-19T14:03:47;40.90;31.70
7030;DHT22;3556;53.500;10.176;2022-07-19T14:06:15;40.90;29.70
7030;DHT22;3556;53.500;10.176;2022-07-19T14:08:41;41.00;33.00
7030;DHT22;3556;53.500;10.176;2022-07-19T14:11:07;41.10;28.40
7030;DHT22;3556;53.500;10.176;2022-07-19T14:13:33;41.20;32.50
7030;DHT22;3556;53.500;10.176;2022-07-19T14:16:02;41.30;28.80
7030;DHT22;3556;53.500;10.176;2022-07-19T14:18:29;41.50;28.50
7030;DHT22;3556;53.500;10.176;2022-07-19T14:20:55;41.50;32.30
7030;DHT22;3556;53.500;10.176;2022-07-19T14:23:21;41.60;29.70
7030;DHT22;3556;53.500;10.176;2022-07-19T14:25:47;41.60;28.80
7030;DHT22;3556;53.500;10.176;2022-07-19T14:28:13;41.70;30.30
7030;DHT22;3556;53.500;10.176;2022-07-19T14:30:39;41.60;29.60
7030;DHT22;3556;53.500;10.176;2022-07-19T14:33:04;41.60;30.30
7030;DHT22;3556;53.500;10.176;2022-07-19T14:35:30;41.50;29.30
7030;DHT22;3556;53.500;10.176;2022-07-19T14:37:56;41.40;30.80
7030;DHT22;3556;53.500;10.176;2022-07-19T14:40:21;41.30;28.60
7030;DHT22;3556;53.500;10.176;2022-07-19T14:42:47;41.00;28.80
7030;DHT22;3556;53.500;10.176;2022-07-19T14:45:13;40.80;31.70
7030;DHT22;3556;53.500;10.176;2022-07-19T14:47:39;40.80;33.10
7030;DHT22;3556;53.500;10.176;2022-07-19T14:50:06;40.80;31.80
7030;DHT22;3556;53.500;10.176;2022-07-19T14:52:33;40.60;31.80
7030;DHT22;3556;53.500;10.176;2022-07-19T14:54:59;40.60;33.00
7030;DHT22;3556;53.500;10.176;2022-07-19T14:57:25;40.50;30.30
7030;DHT22;3556;53.500;10.176;2022-07-19T14:59:51;40.40;33.00
7030;DHT22;3556;53.500;10.176;2022-07-19T15:02:18;40.30;32.20
7030;DHT22;3556;53.500;10.176;2022-07-19T15:04:44;40.20;32.60
7030;DHT22;3556;53.500;10.176;2022-07-19T15:07:10;40.10;32.60
7030;DHT22;3556;53.500;10.176;2022-07-19T15:09:35;40.00;30.40
7030;DHT22;3556;53.500;10.176;2022-07-19T15:12:02;40.00;29.90
7030;DHT22;3556;53.500;10.176;2022-07-19T15:14:29;40.00;33.80
7030;DHT22;3556;53.500;10.176;2022-07-19T15:16:56;39.90;33.50
7030;DHT22;3556;53.500;10.176;2022-07-19T15:19:22;39.90;29.20
7030;DHT22;3556;53.500;10.176;2022-07-19T15:21:47;39.80;29.30
7030;DHT22;3556;53.500;10.176;2022-07-19T15:24:13;39.80;29.20
7030;DHT22;3556;53.500;10.176;2022-07-19T15:26:39;39.60;30.00
7030;DHT22;3556;53.500;10.176;2022-07-19T15:29:04;39.40;30.00
7030;DHT22;3556;53.500;10.176;2022-07-19T15:31:30;39.20;30.70
7030;DHT22;3556;53.500;10.176;2022-07-19T15:33:56;39.10;31.70
7030;DHT22;3556;53.500;10.176;2022-07-19T15:36:22;39.00;30.30
7030;DHT22;3556;53.500;10.176;2022-07-19T15:38:48;38.90;30.90
7030;DHT22;3556;53.500;10.176;2022-07-19T15:41:15;38.80;30.80
7030;DHT22;3556;53.500;10.176;2022-07-19T15:43:42;38.80;30.70
7030;DHT22;3556;53.500;10.176;2022-07-19T15:46:10;38.70;33.20
7030;DHT22;3556;53.500;10.176;2022-07-19T15:48:36;38.70;31.90
7030;DHT22;3556;53.500;10.176;2022-07-19T15:51:02;38.70;33.10
7030;DHT22;3556;53.500;10.176;2022-07-19T15:53:28;38.60;32.00
7030;DHT22;3556;53.500;10.176;2022-07-19T15:55:53;38.50;32.90
7030;DHT22;3556;53.500;10.176;2022-07-19T15:58:19;38.50;33.30
7030;DHT22;3556;53.500;10.176;2022-07-19T16:00:45;38.50;33.70
7030;DHT22;3556;53.500;10.176;2022-07-19T16:03:12;38.50;33.50
7030;DHT22;3556;53.500;10.176;2022-07-19T16:05:38;38.40;34.10